Time;durP1;ratioP1;P1;durP2;ratioP2;P2;SDS_P1;SDS_P2;PMS_P1;PMS_P2;Temp;Humidity;BMP_temperature;BMP_pressure;BME280_temperature;BME280_humidity;BME280_pressure;Samples;Min_cycle;Max_cycle;Signal;HPM_P1;HPM_P2
2022/10/19 00:01:18;;;;;;;5.03;2.90;;;;;;;11.54;59.10;102853.59;4967661;28;124412;-72
2022/10/19 00:03:47;;;;;;;7.78;3.30;;;;;;;11.52;59.02;102849.22;4966951;28;123908;-72
2022/10/19 00:06:17;;;;;;;7.53;3.72;;;;;;;11.49;59.19;102856.34;4967096;28;120008;-72
2022/10/19 00:08:44;;;;;;;7.38;3.38;;;;;;;11.47;59.34;102858.13;4966888;28;120819;-72
2022/10/19 00:11:11;;;;;;;7.40;3.22;;;;;;;11.44;59.35;102852.88;4967230;28;124020;-72
2022/10/19 00:13:39;;;;;;;11.10;4.43;;;;;;;11.42;59.30;102849.38;4967248;28;124117;-72
2022/10/19 00:16:08;;;;;;;11.63;3.92;;;;;;;11.40;59.30;102845.88;4967187;28;119385;-72
2022/10/19 00:18:38;;;;;;;10.25;4.10;;;;;;;11.38;59.36;102841.50;4965738;28;118941;-72
2022/10/19 00:21:07;;;;;;;8.82;3.78;;;;;;;11.33;59.27;102833.59;4967312;28;123829;-72
2022/10/19 00:23:34;;;;;;;7.65;3.72;;;;;;;11.32;59.38;102837.16;4950336;28;123674;-72
2022/10/19 00:26:02;;;;;;;9.88;3.83;;;;;;;11.29;59.38;102832.75;4967067;28;119152;-72
2022/10/19 00:28:29;;;;;;;7.88;3.28;;;;;;;11.27;59.38;102834.56;4964929;28;120377;-72
2022/10/19 00:30:56;;;;;;;9.00;3.83;;;;;;;11.24;59.39;102823.13;4966685;28;123845;-72
2022/10/19 00:33:23;;;;;;;8.23;3.70;;;;;;;11.22;59.36;102825.81;4965286;28;123865;-72
2022/10/19 00:35:51;;;;;;;7.97;3.65;;;;;;;11.20;59.42;102826.75;4948011;28;119248;-72
2022/10/19 00:38:20;;;;;;;6.78;3.22;;;;;;;11.18;59.39;102828.53;4948566;28;118349;-72
2022/10/19 00:40:48;;;;;;;7.63;3.35;;;;;;;11.16;59.59;102833.00;4948367;28;124268;-72
2022/10/19 00:43:18;;;;;;;6.57;3.67;;;;;;;11.14;59.34;102842.75;4966876;28;124053;-72
2022/10/19 00:45:45;;;;;;;11.55;3.65;;;;;;;11.12;59.37;102839.25;4948992;28;118596;-72
2022/10/19 00:48:24;;;;;;;6.32;3.60;;;;;;;11.09;59.54;102846.34;4967417;28;119279;-72
2022/10/19 00:50:54;;;;;;;7.90;3.92;;;;;;;11.07;59.67;102837.53;4964212;28;123709;-72
2022/10/19 00:53:24;;;;;;;9.90;4.18;;;;;;;11.05;59.72;102841.97;4966375;28;124107;-72
2022/10/19 00:55:52;;;;;;;5.68;3.60;;;;;;;11.04;59.86;102837.59;4966489;28;122267;-72
2022/10/19 00:58:19;;;;;;;8.80;3.88;;;;;;;11.02;59.86;102834.09;4966955;28;119994;-72
2022/10/19 01:00:46;;;;;;;8.18;3.97;;;;;;;11.01;59.99;102832.31;4966752;28;123322;-72
2022/10/19 01:03:14;;;;;;;11.77;4.00;;;;;;;10.99;59.81;102844.72;4948768;28;123074;-72
2022/10/19 01:05:42;;;;;;;6.53;3.85;;;;;;;10.99;59.81;102839.41;4963522;28;118927;-72
2022/10/19 01:08:10;;;;;;;7.15;3.90;;;;;;;10.98;60.10;102839.44;4966925;28;118168;-72
2022/10/19 01:10:46;;;;;;;6.28;4.47;;;;;;;10.97;60.00;102835.06;4965922;28;124542;-72
2022/10/19 01:13:42;;;;;;;9.63;4.22;;;;;;;10.94;60.18;102841.25;4964325;28;123864;-72
2022/10/19 01:16:14;;;;;;;8.00;4.15;;;;;;;10.94;60.08;102835.09;4966172;28;119890;-72
2022/10/19 01:19:01;;;;;;;7.88;4.25;;;;;;;10.93;60.08;102834.22;4963814;28;119657;-72
2022/10/19 01:21:36;;;;;;;8.85;3.53;;;;;;;10.91;59.99;102836.88;4962798;28;124448;-72
2022/10/19 01:24:26;;;;;;;7.75;4.00;;;;;;;10.90;60.10;102831.59;4948556;28;123717;-72
2022/10/19 01:27:18;;;;;;;8.45;4.07;;;;;;;10.88;59.85;102820.16;4944025;28;119803;-72
2022/10/19 01:30:21;;;;;;;8.27;4.15;;;;;;;10.85;60.03;102814.88;4963780;28;118807;-72
2022/10/19 01:33:02;;;;;;;8.15;4.15;;;;;;;10.83;60.14;102816.66;4965827;28;124464;-72
2022/10/19 01:35:42;;;;;;;10.02;4.05;;;;;;;10.82;60.13;102820.25;4964340;28;123293;-72
2022/10/19 01:38:31;;;;;;;11.25;4.40;;;;;;;10.79;60.01;102814.97;4963362;28;118826;-71
2022/10/19 01:41:12;;;;;;;10.65;4.30;;;;;;;10.77;60.05;102814.13;4952268;28;118374;-72
2022/10/19 01:44:01;;;;;;;9.63;4.30;;;;;;;10.77;60.17;102811.47;4945860;28;123793;-72
2022/10/19 01:46:35;;;;;;;8.27;4.10;;;;;;;10.73;60.04;102809.75;4962139;28;123794;-72
2022/10/19 01:49:25;;;;;;;9.45;4.38;;;;;;;10.71;60.13;102805.34;4946697;28;119953;-71
2022/10/19 01:51:57;;;;;;;8.85;4.20;;;;;;;10.68;60.26;102797.47;4936284;28;119480;-71
2022/10/19 01:54:34;;;;;;;9.02;3.90;;;;;;;10.68;60.02;102801.88;4963893;28;125906;-72
2022/10/19 01:57:05;;;;;;;8.13;4.35;;;;;;;10.67;60.12;102803.66;4962677;28;124269;-72
2022/10/19 01:59:33;;;;;;;7.85;4.88;;;;;;;10.66;60.15;102803.66;4963236;28;119632;-72
2022/10/19 02:02:02;;;;;;;8.63;4.07;;;;;;;10.64;60.15;102801.06;4947476;28;118793;-72
2022/10/19 02:04:31;;;;;;;7.60;4.00;;;;;;;10.63;60.27;102804.59;4965501;28;123965;-72
2022/10/19 02:07:00;;;;;;;8.85;4.50;;;;;;;10.63;60.19;102807.25;4947405;28;122769;-72
2022/10/19 02:09:27;;;;;;;7.30;4.22;;;;;;;10.61;60.09;102795.78;4947955;28;119478;-72
2022/10/19 02:11:58;;;;;;;8.55;3.97;;;;;;;10.60;60.40;102794.03;4965971;28;119414;-72
2022/10/19 02:14:31;;;;;;;8.93;4.25;;;;;;;10.58;60.41;102801.13;4960823;28;124149;-72
2022/10/19 02:17:10;;;;;;;7.30;4.03;;;;;;;10.56;60.14;102797.63;4963129;28;124560;-72
2022/10/19 02:19:37;;;;;;;5.53;3.67;;;;;;;10.54;60.12;102794.13;4962620;28;119686;-73
2022/10/19 02:22:05;;;;;;;6.60;3.83;;;;;;;10.53;60.11;102797.69;4948290;28;119364;-72
2022/10/19 02:24:32;;;;;;;9.70;4.00;;;;;;;10.52;60.13;102790.59;4963495;28;124761;-72
2022/10/19 02:27:03;;;;;;;8.35;3.88;;;;;;;10.50;60.28;102792.41;4929358;28;121869;-72
2022/10/19 02:29:32;;;;;;;8.00;3.97;;;;;;;10.50;60.03;102792.41;4960752;28;119234;-72
2022/10/19 02:32:00;;;;;;;9.02;4.28;;;;;;;10.47;60.44;102789.78;4966021;28;119322;-72
2022/10/19 02:34:27;;;;;;;6.90;4.05;;;;;;;10.46;60.34;102780.09;4968336;28;123654;-72
2022/10/19 02:36:54;;;;;;;7.20;3.80;;;;;;;10.45;60.42;102773.03;4969500;28;124570;-72
2022/10/19 02:39:22;;;;;;;5.30;3.28;;;;;;;10.43;60.36;102780.13;4950966;28;120138;-73
2022/10/19 02:42:01;;;;;;;6.82;3.25;;;;;;;10.40;60.59;102770.47;4967232;28;121023;-73
2022/10/19 02:44:35;;;;;;;6.30;3.28;;;;;;;10.37;60.27;102765.19;4968592;28;124624;-73
2022/10/19 02:47:08;;;;;;;8.85;3.55;;;;;;;10.36;60.65;102762.56;4967518;28;123825;-72
2022/10/19 02:49:37;;;;;;;6.22;3.55;;;;;;;10.33;60.33;102763.50;4961785;28;119756;-73
2022/10/19 02:52:07;;;;;;;6.85;3.20;;;;;;;10.31;60.29;102750.25;4968014;28;119554;-73
2022/10/19 02:54:34;;;;;;;3.22;2.60;;;;;;;10.30;60.10;102753.81;4966131;28;123890;-73
2022/10/19 02:57:06;;;;;;;3.63;2.50;;;;;;;10.28;60.29;102760.88;4968600;28;124024;-73
2022/10/19 02:59:33;;;;;;;3.55;2.65;;;;;;;10.25;60.38;102754.75;4968317;28;119474;-73
2022/10/19 03:02:00;;;;;;;5.07;2.90;;;;;;;10.21;60.18;102759.19;4951261;28;118183;-73
2022/10/19 03:04:27;;;;;;;5.50;3.05;;;;;;;10.20;60.23;102762.72;4967862;28;124299;-73
2022/10/19 03:06:54;;;;;;;4.85;2.95;;;;;;;10.17;60.38;102762.78;4950991;28;125343;-73
2022/10/19 03:09:21;;;;;;;8.30;3.35;;;;;;;10.16;60.38;102766.31;4968823;28;118983;-73
2022/10/19 03:11:48;;;;;;;7.18;3.38;;;;;;;10.15;60.40;102764.56;4951024;28;119277;-73
2022/10/19 03:14:15;;;;;;;6.53;3.47;;;;;;;10.13;60.39;102761.06;4950968;28;124016;-73
2022/10/19 03:16:42;;;;;;;4.72;3.08;;;;;;;10.11;60.70;102762.84;4950369;28;123138;-73
2022/10/19 03:19:09;;;;;;;6.60;3.55;;;;;;;10.09;60.66;102759.34;4968222;28;119169;-73
2022/10/19 03:21:36;;;;;;;7.45;3.28;;;;;;;10.09;60.42;102767.28;4950804;28;118746;-73
2022/10/19 03:24:03;;;;;;;7.55;3.70;;;;;;;10.08;60.61;102760.25;4950266;28;122335;-74
2022/10/19 03:26:30;;;;;;;7.97;3.75;;;;;;;10.06;60.60;102770.84;4950746;28;122826;-73
2022/10/19 03:28:57;;;;;;;8.38;3.85;;;;;;;10.06;60.41;102759.41;4968916;28;120045;-74
2022/10/19 03:31:26;;;;;;;7.97;3.55;;;;;;;10.06;60.43;102764.69;4968815;28;119906;-72
2022/10/19 03:33:53;;;;;;;10.73;4.15;;;;;;;10.06;60.56;102754.09;4969217;28;124132;-73
2022/10/19 03:36:29;;;;;;;8.30;3.92;;;;;;;10.05;60.55;102752.34;4968290;28;124862;-72
2022/10/19 03:38:59;;;;;;;7.53;4.13;;;;;;;10.06;60.75;102743.50;4966946;28;118779;-72
2022/10/19 03:41:28;;;;;;;6.38;3.72;;;;;;;10.06;60.84;102743.50;4967537;28;120382;-72
2022/10/19 03:43:56;;;;;;;8.68;3.80;;;;;;;10.05;60.84;102752.34;4968439;28;123720;-73
2022/10/19 03:46:23;;;;;;;8.52;3.83;;;;;;;10.03;60.82;102743.53;4967830;28;124432;-73
2022/10/19 03:48:51;;;;;;;7.22;3.60;;;;;;;10.03;60.69;102754.13;4968814;28;119471;-73
2022/10/19 03:51:23;;;;;;;8.15;3.72;;;;;;;10.03;60.91;102754.13;4935994;28;117959;-72
2022/10/19 03:53:53;;;;;;;9.27;4.30;;;;;;;10.02;60.79;102752.38;4977324;28;124954;-72
2022/10/19 03:56:23;;;;;;;7.18;3.97;;;;;;;10.01;60.65;102756.78;4987046;28;124497;-72
2022/10/19 03:58:52;;;;;;;7.88;4.00;;;;;;;10.01;60.91;102745.34;4977490;28;118738;-73
2022/10/19 04:01:24;;;;;;;5.20;3.83;;;;;;;10.00;60.75;102754.16;4970541;28;118796;-72
2022/10/19 04:03:57;;;;;;;12.57;4.10;;;;;;;9.99;60.91;102749.78;4966748;28;123254;-72
2022/10/19 04:06:34;;;;;;;8.43;3.85;;;;;;;9.98;61.18;102746.22;4950271;28;123513;-73
2022/10/19 04:09:02;;;;;;;9.02;4.30;;;;;;;9.98;61.02;102745.34;4946085;28;119633;-72
2022/10/19 04:11:30;;;;;;;9.10;4.10;;;;;;;9.99;60.77;102752.41;4967659;28;118969;-73
2022/10/19 04:13:57;;;;;;;9.73;3.90;;;;;;;9.97;60.96;102749.78;4967684;28;123751;-73
2022/10/19 04:16:26;;;;;;;6.32;3.70;;;;;;;9.96;60.99;102747.16;4966480;28;124415;-72
2022/10/19 04:18:54;;;;;;;9.10;4.13;;;;;;;9.94;60.89;102755.09;4967059;28;120048;-72
2022/10/19 04:21:26;;;;;;;5.80;3.72;;;;;;;9.92;60.82;102763.06;4965923;28;120443;-72
2022/10/19 04:23:57;;;;;;;7.53;4.13;;;;;;;9.92;60.73;102752.47;4947103;28;123713;-72
2022/10/19 04:26:25;;;;;;;7.97;3.63;;;;;;;9.91;60.93;102761.31;4964541;28;123899;-73
2022/10/19 04:28:52;;;;;;;7.00;4.00;;;;;;;9.90;60.82;102745.44;4968241;28;118339;-72
2022/10/19 04:31:19;;;;;;;10.75;4.00;;;;;;;9.88;61.07;102756.03;4967244;28;118882;-72
2022/10/19 04:33:46;;;;;;;9.73;4.47;;;;;;;9.87;60.87;102756.97;4967679;28;124707;-72
2022/10/19 04:36:18;;;;;;;7.03;4.03;;;;;;;9.86;60.96;102752.53;4970839;28;123700;-72
2022/10/19 04:38:46;;;;;;;8.23;4.07;;;;;;;9.84;61.14;102759.63;4984065;28;119117;-73
2022/10/19 04:41:15;;;;;;;7.60;4.20;;;;;;;9.83;61.08;102768.47;4980039;28;118983;-72
2022/10/19 04:43:44;;;;;;;6.93;4.18;;;;;;;9.82;60.69;102766.72;4955638;28;124159;-73
2022/10/19 04:46:20;;;;;;;11.73;4.32;;;;;;;9.81;61.07;102754.34;4951438;28;124164;-73
2022/10/19 04:48:48;;;;;;;9.95;4.00;;;;;;;9.82;61.24;102761.41;4965707;28;119748;-73
2022/10/19 04:51:15;;;;;;;10.05;4.05;;;;;;;9.81;60.90;102759.66;4951408;28;118965;-73
2022/10/19 04:53:43;;;;;;;7.25;4.22;;;;;;;9.80;61.13;102767.63;4968117;28;124820;-73
2022/10/19 04:56:15;;;;;;;9.30;4.30;;;;;;;9.78;61.16;102753.53;4967239;28;123902;-72
2022/10/19 04:58:43;;;;;;;8.85;4.28;;;;;;;9.78;60.84;102759.69;4948345;28;119365;-72
2022/10/19 05:01:16;;;;;;;7.57;4.53;;;;;;;9.77;61.05;102751.78;4966220;28;118500;-72
2022/10/19 05:03:44;;;;;;;7.47;4.30;;;;;;;9.76;60.84;102750.91;4966248;28;124842;-73
2022/10/19 05:06:12;;;;;;;10.23;4.72;;;;;;;9.74;61.06;102752.69;4968973;28;122767;-74
2022/10/19 05:08:40;;;;;;;6.85;4.28;;;;;;;9.71;60.94;102742.13;4967359;28;121242;-72
2022/10/19 05:11:09;;;;;;;9.82;4.32;;;;;;;9.69;60.76;102751.88;4967286;28;120432;-72
2022/10/19 05:13:37;;;;;;;8.35;4.72;;;;;;;9.67;60.74;102751.00;4966516;28;123983;-72
2022/10/19 05:16:06;;;;;;;5.65;4.00;;;;;;;9.66;60.73;102749.22;4966675;28;124443;-73
2022/10/19 05:18:33;;;;;;;5.07;3.40;;;;;;;9.62;60.78;102735.16;4964973;28;119101;-73
2022/10/19 05:21:03;;;;;;;6.90;3.97;;;;;;;9.60;60.88;102738.72;4967027;28;119970;-72
2022/10/19 05:23:30;;;;;;;5.82;3.47;;;;;;;9.58;60.99;102740.50;4966940;28;124068;-72
2022/10/19 05:26:01;;;;;;;5.90;3.60;;;;;;;9.54;61.12;102740.53;4966666;28;123970;-72
2022/10/19 05:28:28;;;;;;;5.53;3.33;;;;;;;9.52;61.01;102742.31;4947771;28;119039;-72
2022/10/19 05:31:03;;;;;;;5.65;3.50;;;;;;;9.50;60.98;102744.09;4966378;28;118738;-72
2022/10/19 05:33:30;;;;;;;9.70;3.70;;;;;;;9.47;60.55;102738.84;4948210;28;123996;-72
2022/10/19 05:35:57;;;;;;;7.47;3.85;;;;;;;9.46;60.65;102742.38;4966273;28;124644;-73
2022/10/19 05:38:24;;;;;;;6.32;3.95;;;;;;;9.42;60.99;102740.69;4931861;28;118836;-72
2022/10/19 05:40:50;;;;;;;4.72;3.83;;;;;;;9.41;60.83;102744.19;4966873;28;119973;-72
2022/10/19 05:43:19;;;;;;;8.98;4.80;;;;;;;9.41;61.18;102743.31;4966780;28;123512;-72
2022/10/19 05:45:46;;;;;;;8.15;3.88;;;;;;;9.39;61.04;102745.97;4948667;28;123033;-72
2022/10/19 05:48:13;;;;;;;6.18;4.15;;;;;;;9.38;60.94;102738.94;4949310;28;119150;-72
2022/10/19 05:50:51;;;;;;;6.35;4.30;;;;;;;9.37;61.25;102737.19;4967188;28;118777;-73
2022/10/19 05:53:18;;;;;;;6.65;4.38;;;;;;;9.36;61.17;102735.41;4963188;28;124478;-73
2022/10/19 05:55:45;;;;;;;7.05;4.35;;;;;;;9.35;61.07;102738.97;4965183;28;124192;-73
2022/10/19 05:58:12;;;;;;;8.93;4.60;;;;;;;9.36;61.06;102735.41;4965077;28;120130;-73
2022/10/19 06:00:39;;;;;;;7.53;4.70;;;;;;;9.37;61.29;102733.69;4947853;28;119202;-73
2022/10/19 06:03:06;;;;;;;11.82;5.32;;;;;;;9.36;60.89;102735.41;4966625;28;123833;-73
2022/10/19 06:05:36;;;;;;;9.40;5.47;;;;;;;9.35;61.13;102738.97;4962507;28;124173;-73
2022/10/19 06:08:03;;;;;;;10.07;5.72;;;;;;;9.34;61.32;102731.91;4964941;28;119859;-73
2022/10/19 06:10:30;;;;;;;10.35;5.78;;;;;;;9.34;61.65;102731.91;4966389;28;119031;-73
2022/10/19 06:12:57;;;;;;;13.02;6.10;;;;;;;9.34;61.29;102723.97;4963690;28;124336;-73
2022/10/19 06:15:24;;;;;;;10.13;5.65;;;;;;;9.35;61.25;102720.47;4966821;28;123639;-73
2022/10/19 06:17:51;;;;;;;12.02;5.80;;;;;;;9.35;61.23;102725.75;4948768;28;119248;-73
2022/10/19 06:20:18;;;;;;;8.57;5.60;;;;;;;9.35;61.42;102725.75;4932085;28;118798;-72
2022/10/19 06:22:45;;;;;;;10.05;6.13;;;;;;;9.35;61.61;102731.03;4965770;28;124737;-73
2022/10/19 06:25:12;;;;;;;10.07;5.88;;;;;;;9.34;61.65;102732.81;4966394;28;123480;-73
2022/10/19 06:27:46;;;;;;;9.90;5.80;;;;;;;9.35;61.59;102738.97;4963561;28;119873;-73
2022/10/19 06:30:13;;;;;;;10.18;5.57;;;;;;;9.35;61.39;102738.97;4966347;28;119631;-73
2022/10/19 06:32:40;;;;;;;8.90;5.15;;;;;;;9.35;61.50;102738.97;4952594;28;123421;-73
2022/10/19 06:35:07;;;;;;;9.77;5.22;;;;;;;9.35;61.71;102729.25;4966206;28;124468;-73
2022/10/19 06:37:34;;;;;;;8.32;5.35;;;;;;;9.37;61.82;102729.25;4948770;28;118233;-73
2022/10/19 06:40:02;;;;;;;6.80;4.47;;;;;;;9.37;61.47;102726.59;4953077;28;120094;-73
2022/10/19 06:42:33;;;;;;;7.32;4.45;;;;;;;9.40;61.50;102730.97;4948349;28;122292;-73
2022/10/19 06:45:00;;;;;;;9.30;4.50;;;;;;;9.41;61.97;102733.63;4966075;28;123975;-73
2022/10/19 06:47:31;;;;;;;7.75;5.18;;;;;;;9.42;61.87;102732.75;4965763;28;120042;-73
2022/10/19 06:49:59;;;;;;;10.82;6.35;;;;;;;9.44;61.89;102728.31;4963571;28;120300;-73
2022/10/19 06:52:26;;;;;;;9.68;6.00;;;;;;;9.47;62.11;102733.53;4965064;28;124021;-73
2022/10/19 06:54:53;;;;;;;10.38;6.32;;;;;;;9.51;62.37;102724.72;4966045;28;124185;-73
2022/10/19 06:57:20;;;;;;;14.15;6.13;;;;;;;9.55;62.27;102718.50;4948349;28;119491;-73
2022/10/19 06:59:47;;;;;;;11.57;6.25;;;;;;;9.60;62.41;102717.56;4965567;28;119537;-73
2022/10/19 07:02:19;;;;;;;13.20;6.68;;;;;;;9.64;62.40;102719.28;4963008;28;123934;-74
2022/10/19 07:04:46;;;;;;;14.98;6.82;;;;;;;9.68;62.58;102721.00;4966424;28;124590;-73
2022/10/19 07:07:13;;;;;;;17.35;7.88;;;;;;;9.73;63.06;102729.75;4963830;28;118403;-73
2022/10/19 07:09:40;;;;;;;14.20;7.35;;;;;;;9.80;63.40;102734.09;4966511;28;118765;-73
2022/10/19 07:12:09;;;;;;;16.15;7.55;;;;;;;9.88;63.35;102729.59;4965471;28;123978;-74
2022/10/19 07:14:38;;;;;;;12.50;7.80;;;;;;;9.96;63.66;102736.56;4966665;28;124051;-73
2022/10/19 07:17:06;;;;;;;14.20;7.85;;;;;;;10.06;63.29;102738.22;4948817;28;118615;-73
2022/10/19 07:19:33;;;;;;;11.98;7.40;;;;;;;10.13;63.63;102739.88;4968220;28;119718;-73
2022/10/19 07:22:00;;;;;;;16.02;8.13;;;;;;;10.22;63.83;102739.75;4951120;28;124104;-73
2022/10/19 07:24:28;;;;;;;15.82;8.27;;;;;;;10.31;64.00;102739.66;4969571;28;124082;-73
2022/10/19 07:26:55;;;;;;;12.65;7.97;;;;;;;10.42;64.09;102743.97;4951232;28;118825;-73
2022/10/19 07:29:22;;;;;;;17.85;7.93;;;;;;;10.51;64.31;102754.44;4969979;28;119025;-73
2022/10/19 07:31:49;;;;;;;13.98;7.82;;;;;;;10.58;64.07;102748.13;4960530;28;123644;-73
2022/10/19 07:34:16;;;;;;;15.98;7.20;;;;;;;10.67;64.21;102748.00;4963262;28;123754;-73
2022/10/19 07:36:46;;;;;;;14.02;8.13;;;;;;;10.77;64.36;102742.56;4968503;28;120261;-73
2022/10/19 07:39:17;;;;;;;15.20;8.27;;;;;;;10.85;64.41;102740.66;4952573;28;119738;-73
2022/10/19 07:41:44;;;;;;;15.55;7.78;;;;;;;10.94;64.49;102735.22;4953702;28;124402;-73
2022/10/19 07:44:13;;;;;;;13.52;7.53;;;;;;;11.02;64.88;102725.38;4969455;28;123802;-73
2022/10/19 07:46:42;;;;;;;15.65;7.53;;;;;;;11.14;65.00;102723.41;4968763;28;119021;-73
2022/10/19 07:49:13;;;;;;;14.40;7.25;;;;;;;11.24;64.99;102722.34;4951074;28;117462;-73
2022/10/19 07:51:40;;;;;;;19.20;7.72;;;;;;;11.35;64.89;102719.50;4954226;28;123920;-73
2022/10/19 07:54:07;;;;;;;13.40;6.50;;;;;;;11.45;65.05;102721.06;4968735;28;124054;-73
2022/10/19 07:56:34;;;;;;;18.83;7.43;;;;;;;11.55;65.26;102711.19;4950904;28;119864;-73
2022/10/19 07:59:03;;;;;;;17.77;7.53;;;;;;;11.66;65.30;102719.81;4950610;28;118061;-73
2022/10/19 08:01:33;;;;;;;15.10;7.43;;;;;;;11.77;65.34;102722.25;4968080;28;123642;-73
2022/10/19 08:04:00;;;;;;;14.55;7.38;;;;;;;11.88;65.24;102725.56;4950179;28;122975;-73
2022/10/19 08:06:48;;;;;;;16.35;6.97;;;;;;;11.99;65.32;102733.34;4968123;28;119203;-73
2022/10/19 08:09:15;;;;;;;15.25;7.35;;;;;;;12.11;65.31;102743.72;4963674;28;118748;-73
2022/10/19 08:12:03;;;;;;;12.23;7.05;;;;;;;12.22;65.18;102728.44;4960054;28;123852;-73
2022/10/19 08:14:31;;;;;;;15.23;7.68;;;;;;;12.34;65.42;102723.72;4968823;28;124605;-73
2022/10/19 08:16:59;;;;;;;12.25;7.50;;;;;;;12.44;65.32;102725.28;4968564;28;119379;-73
2022/10/19 08:19:26;;;;;;;12.95;7.03;;;;;;;12.52;65.24;102723.31;4954979;28;120011;-73
2022/10/19 08:21:53;;;;;;;13.35;6.78;;;;;;;12.62;65.22;102714.25;4949801;28;123410;-73
2022/10/19 08:24:20;;;;;;;13.35;6.72;;;;;;;12.72;65.10;102714.03;4947591;28;123847;-72
2022/10/19 08:26:50;;;;;;;12.48;7.30;;;;;;;12.82;65.26;102712.88;4956730;28;121204;-73
2022/10/19 08:29:19;;;;;;;15.20;6.40;;;;;;;12.91;64.80;102710.00;4968053;28;120631;-73
2022/10/19 08:31:48;;;;;;;13.15;5.68;;;;;;;12.99;65.10;102705.34;4967667;28;123716;-73
2022/10/19 08:34:16;;;;;;;11.05;6.03;;;;;;;13.09;65.04;102702.44;4950768;28;123784;-73
2022/10/19 08:36:43;;;;;;;11.80;5.50;;;;;;;13.17;64.88;102700.50;4950729;28;119694;-72
2022/10/19 08:39:11;;;;;;;13.50;5.90;;;;;;;13.27;64.92;102701.97;4968708;28;118820;-73
2022/10/19 08:41:38;;;;;;;10.15;5.75;;;;;;;13.37;64.71;102698.22;4967401;28;124641;-72
2022/10/19 08:44:31;;;;;;;10.77;5.28;;;;;;;13.48;64.60;102700.56;4968701;28;124537;-73
2022/10/19 08:47:02;;;;;;;10.00;4.68;;;;;;;13.59;64.44;102705.59;4966315;28;119336;-72
2022/10/19 08:49:32;;;;;;;10.52;4.65;;;;;;;13.71;64.33;102707.94;4965149;28;119343;-72
2022/10/19 08:52:12;;;;;;;7.63;4.78;;;;;;;13.81;64.23;102698.75;4949909;28;123760;-73
2022/10/19 08:54:48;;;;;;;10.05;4.45;;;;;;;13.93;64.06;102691.31;4964907;28;125164;-73
2022/10/19 08:57:47;;;;;;;11.02;4.68;;;;;;;14.05;64.04;102688.25;4965861;28;120328;-73
2022/10/19 09:00:26;;;;;;;8.40;4.10;;;;;;;14.17;63.92;102679.91;4965705;28;118864;-73
2022/10/19 09:03:15;;;;;;;8.15;4.00;;;;;;;14.27;63.56;102679.63;4950205;28;124036;-73
2022/10/19 09:06:18;;;;;;;9.05;4.40;;;;;;;14.39;63.51;102671.22;4950997;28;99856;-73
2022/10/19 09:08:46;;;;;;;7.65;3.08;;;;;;;14.50;63.40;102669.09;4967311;28;119052;-72
2022/10/19 09:11:19;;;;;;;10.55;3.10;;;;;;;14.59;62.98;102671.50;4950739;28;118902;-73
2022/10/19 09:13:48;;;;;;;7.75;3.10;;;;;;;14.68;62.81;102669.47;4949605;28;123492;-72
2022/10/19 09:16:33;;;;;;;9.73;3.42;;;;;;;14.77;62.59;102669.19;4938811;28;123610;-73
2022/10/19 09:19:02;;;;;;;8.35;3.90;;;;;;;14.86;62.50;102658.19;4967249;28;121146;-72
2022/10/19 09:21:47;;;;;;;6.13;3.30;;;;;;;14.95;62.05;102662.31;4931530;28;118450;-74
2022/10/19 09:24:49;;;;;;;6.35;3.30;;;;;;;15.04;61.93;102666.47;4946173;28;124351;-72
2022/10/19 09:27:22;;;;;;;8.38;3.22;;;;;;;15.14;61.30;102667.91;4961302;28;124054;-73
2022/10/19 09:29:57;;;;;;;9.18;2.83;;;;;;;15.21;61.29;102658.75;4957228;28;119349;-71
2022/10/19 09:32:28;;;;;;;;;;;;;;;15.27;61.75;102647.84;4961302;28;116978;-71
2022/10/19 09:35:17;;;;;;;8.00;2.80;;;;;;;15.41;61.29;102654.47;4961389;28;123184;-71
2022/10/19 09:37:47;;;;;;;6.68;2.20;;;;;;;15.51;60.79;102655.91;4969129;28;124684;-72
2022/10/19 09:40:20;;;;;;;5.57;2.13;;;;;;;15.61;60.63;102645.75;4966992;28;119049;-72
2022/10/19 09:42:56;;;;;;;7.00;2.15;;;;;;;15.68;60.00;102640.13;4965647;28;118456;-72
2022/10/19 09:45:35;;;;;;;;;;;;;;;15.72;60.14;102639.06;4963533;28;124422;-72
2022/10/19 09:48:12;;;;;;;4.72;1.70;;;;;;;15.79;59.19;102637.06;4964927;28;124828;-72
2022/10/19 09:50:43;;;;;;;7.13;1.98;;;;;;;15.85;59.05;102638.66;4963170;28;119033;-72
2022/10/19 09:53:19;;;;;;;11.50;2.25;;;;;;;15.92;59.05;102629.47;4948559;28;118786;-73
2022/10/19 09:55:56;;;;;;;5.78;1.70;;;;;;;16.00;58.65;102632.69;4963300;28;123998;-72
2022/10/19 09:58:25;;;;;;;5.13;1.70;;;;;;;16.07;58.45;102634.22;4963821;28;124039;-72
2022/10/19 10:00:58;;;;;;;5.63;1.75;;;;;;;16.14;58.32;102641.06;4946204;28;118970;-72
2022/10/19 10:03:28;;;;;;;7.68;1.75;;;;;;;16.22;58.14;102642.53;4947641;28;118488;-72
2022/10/19 10:06:04;;;;;;;9.90;2.00;;;;;;;16.30;57.63;102640.44;4948763;28;124470;-72
2022/10/19 10:08:45;;;;;;;6.70;1.55;;;;;;;16.36;57.17;102645.53;4965523;28;123694;-72
2022/10/19 10:11:24;;;;;;;6.72;1.60;;;;;;;16.39;57.12;102649.88;4965048;28;119984;-72
2022/10/19 10:13:53;;;;;;;9.38;1.70;;;;;;;16.42;56.82;102644.41;4963106;28;119911;-72
2022/10/19 10:16:23;;;;;;;4.95;1.73;;;;;;;16.46;56.64;102636.22;4948103;28;123684;-72
2022/10/19 10:18:58;;;;;;;4.15;1.60;;;;;;;16.48;56.43;102631.66;4967737;28;124494;-72
2022/10/19 10:21:34;;;;;;;;;;;;;;;16.47;56.88;102624.56;4968410;28;120567;-72
2022/10/19 10:24:05;;;;;;;7.88;2.03;;;;;;;16.48;56.04;102623.66;4963744;28;118587;-73
2022/10/19 10:26:41;;;;;;;4.93;1.63;;;;;;;16.47;55.84;102615.69;4970907;28;124418;-70
2022/10/19 10:29:23;;;;;;;8.60;1.70;;;;;;;16.45;55.86;102618.41;4985077;28;124652;-71
2022/10/19 10:31:55;;;;;;;4.90;1.75;;;;;;;16.45;55.90;102615.75;4962322;28;116273;-72
2022/10/19 10:34:32;;;;;;;5.78;2.10;;;;;;;16.48;56.24;102618.28;4962508;28;119222;-73
2022/10/19 10:37:23;;;;;;;5.07;1.75;;;;;;;16.54;56.28;102618.03;4943925;28;123547;-73
2022/10/19 10:39:53;;;;;;;3.92;1.30;;;;;;;16.61;56.26;102602.56;4948262;28;123623;-71
2022/10/19 10:42:35;;;;;;;5.65;1.70;;;;;;;16.71;56.38;102603.09;4965319;28;119451;-71
2022/10/19 10:45:03;;;;;;;6.20;2.13;;;;;;;16.77;55.61;102594.78;4962990;28;118992;-70
2022/10/19 10:47:31;;;;;;;9.63;2.03;;;;;;;16.82;55.32;102595.50;4965775;28;122818;-70
2022/10/19 10:50:05;;;;;;;6.82;1.77;;;;;;;16.84;55.15;102580.25;4947277;28;124363;-70
2022/10/19 10:52:34;;;;;;;8.27;1.90;;;;;;;16.90;55.49;102582.63;4947642;28;118182;-70
2022/10/19 10:55:08;;;;;;;4.72;1.90;;;;;;;16.97;54.83;102599.31;4968045;28;118807;-69
2022/10/19 10:57:45;;;;;;;7.78;1.63;;;;;;;17.03;55.01;102590.13;4965829;28;124660;-70
2022/10/19 11:00:21;;;;;;;5.63;1.75;;;;;;;17.12;54.86;102592.38;4958947;28;123089;-71
2022/10/19 11:03:11;;;;;;;5.50;1.70;;;;;;;17.21;54.58;102586.63;4967795;28;120542;-70
2022/10/19 11:05:46;;;;;;;4.82;1.92;;;;;;;17.29;54.04;102581.81;4955189;28;120350;-71
2022/10/19 11:08:24;;;;;;;;;;;;;;;17.31;55.15;102577.25;4967145;28;124419;-71
2022/10/19 11:11:04;;;;;;;4.00;1.60;;;;;;;17.38;54.35;102571.59;4967737;28;125499;-70
2022/10/19 11:13:40;;;;;;;4.60;1.80;;;;;;;17.41;53.82;102568.78;4968466;28;120080;-70
2022/10/19 11:16:12;;;;;;;;;;;;;;;17.41;54.76;102566.09;4950467;28;118753;-71
2022/10/19 11:18:47;;;;;;;8.40;1.83;;;;;;;17.46;53.80;102561.38;4966231;28;124220;-70
2022/10/19 11:21:23;;;;;;;4.00;1.40;;;;;;;17.50;53.56;102560.31;4967271;28;123468;-71
2022/10/19 11:24:12;;;;;;;5.78;1.52;;;;;;;17.53;52.88;102554.81;4967334;28;119144;-71
2022/10/19 11:26:57;;;;;;;4.63;1.13;;;;;;;17.54;53.08;102556.56;4968127;28;119146;-71
2022/10/19 11:29:46;;;;;;;5.07;1.75;;;;;;;17.54;52.75;102537.81;4962715;28;123819;-71
2022/10/19 11:32:26;;;;;;;3.92;1.20;;;;;;;17.54;52.72;102539.59;4950432;28;123238;-72
2022/10/19 11:35:13;;;;;;;5.18;1.30;;;;;;;17.55;52.82;102535.97;4968215;28;119999;-77
2022/10/19 11:37:59;;;;;;;8.05;1.83;;;;;;;17.60;53.18;102529.47;4966710;28;119627;-72
2022/10/19 11:40:52;;;;;;;3.53;1.38;;;;;;;17.67;53.01;102530.91;4967542;28;124015;-72